Startpagina
METAR-TAF:

METAR-TAF

Vliegvelden :

Madrid, Spanje

Aeropuerto Adolfo Suárez Madrid-Barajas

breedte: 40-27N, lengte: 003-33W, hoogte: 609 m

Actueel weer

Dit bericht is 20 minuten geleden gemaakt, om 17:30 UTC
Wind 2 kt uit het noordnoordwesten
Temperatuur 13°C
Vochtigheid 44%
Druk 1019 hPa
Zicht 10 km of meer
geen wolken onder 1500 m en geen cumulonimbus

METAR: LEMD 181730Z 34002KT CAVOK 13/01 Q1019 NOSIG

Tijdstip: 18:50 (17:50 UTC)

Verwachting

Dit bericht is 50 minuten geleden gemaakt, om 17:00 UTC
Verwachting geldig van 18 om 18 UTC tot 19 om 24 UTC
Wind 5 kt uit variabele richting
Zicht 10 km of meer
geen wolken onder 1500 m en geen cumulonimbus

TAF: LEMD 181700Z 1818/1924 VRB05KT CAVOK TX19/1914Z TN00/1907Z

Waarnemingen en weersverwachtingen van meer dan 4000 vliegvelden (METAR en TAF).

De beschikbare stations zijn de gele en rode punten op de kaart.

Ga met uw muis naar het station om de naam te zien.

Klik dan om waarnemingen en weersverwachtingen te zien.

kaart wijzigen: klik op de groene knoppen met een zwart kruis om in te zoomen, op de groene knop met een streepje om uit te zoomen of op de groene pijlen voor aangrenzende kaarten.


METAR-TAF: